Pagrindinis puslapis
METAR-TAF:

METAR-TAF

Oro uostai :

Kristiansandas, Norvegija

platuma: 58-12N, ilguma: 008-05E, Aukštis: 1 m

Dabartinis oras

Ataskaita buvo paskelbta 49 minutes, ne 04:20 UTC
Vėjas 10 kt iš Pietų/Pietryčių, svyruoja nuo Pietryčių ir Pietų
Temperatūra 13°C
Drėgmė 94%
Slėgis 1003 hPa
Matomumas 10 km arba daugiau
Išsisklaidę debesys ne aukštis 800 ft
Su prošvaistėmis ne aukštis 1100 ft

METAR: ENCN 160420Z 16010KT 130V190 9999 SCT008 BKN011 13/12 Q1003

Laikas: 07:09 (05:09 UTC)

Prognozė

Ataskaita buvo paskelbta 3 valandos ir 9 minutes, ne 02:00 UTC
Prognozė galioja nuo 16 metu 03 UTC su 16 metu 12 UTC
Vėjas 8 kt iš Pietų
Matomumas 10 km arba daugiau
Mažai debesys ne aukštis 1200 ft
Su prošvaistėmis ne aukštis 2000 ft
Laikinai
nuo 16 metu 03 UTC su 16 metu 12 UTC
Matomumas: 4000 m
Su prošvaistėmis ne aukštis 800 ft
Mažai debesys ne aukštis 2000 ft, Liūtiniai kamuoliniai debesys.
lietus, rūkana,

TAF: ENCN 160200Z 1603/1612 18008KT 9999 FEW012 BKN020 TEMPO 1603/1612 4000 SHRA BR BKN008 FEW020CB

Orai ataskaitas ir orų prognozės (METAR, TAF).

turimą stotys yra geltonos ir raudonos taškus žemėlapyje.

Perkelti pele per norėdami pamatyti stoties vardą.

Tada spustelėkite, norėdami matyti oro stebėjimo ir prognozės.

Norėdami pakeisti žemėlapį: spustelėkite ant žalios mygtukų su juodo kryžiaus žemyn,; žalią mygtuką su brūkšneliu, jei norite nutolinti; arba žalių rodyklių gretimoms žemėlapius.


METAR-TAF: